CSUN New Campus Station -PST Time - Most Recent Data on bottom of page




           Date/Time      Avg      Avg      Max     Wind      Avg      Max      Min      Avg      Avg    Total      Avg     Batt
                         Wind     Wind     Wind      Dir     Temp     Temp     Temp       RH      Bar     Rain    Solar     Volt
                      Spd MPH      Dir  Spd MPH   at Max    Deg_F    Deg_F    Deg_F        % Press_mb   Inches     W/m2      Min
--------------------------------------------------------------------------------------------------------------------------------
    07/27/2014 00:00      1.2       63      3.6       85     73.5     73.7     73.3       43     1014     0.00        0     13.3
    07/27/2014 00:15      0.7       84      3.6       95     73.4     73.7     73.1       45     1014     0.00        0     13.3
    07/27/2014 00:30      0.7       69      2.9       75     73.2     73.4     73.0       47     1014     0.00        0     13.3
    07/27/2014 00:45      0.6       66      2.5       79     73.1     73.3     72.9       47     1014     0.00        0     13.3
    07/27/2014 01:00      0.1       86      1.5       95     73.0     73.2     72.6       48     1014     0.00        0     13.3
    07/27/2014 01:15      0.2      160      1.1      152     72.5     72.8     72.1       49     1014     0.00        0     13.3
    07/27/2014 01:30      0.6      192      1.9      201     71.8     72.3     71.5       51     1014     0.00        0     13.3
    07/27/2014 01:45      0.8      153      2.2      150     71.5     71.9     71.2       50     1014     0.00        0     13.3
    07/27/2014 02:00      0.0      148      0.4      149     71.7     71.9     71.5       51     1014     0.00        0     13.3
    07/27/2014 02:15      0.0        0      0.0      158     71.8     72.1     71.4       51     1013     0.00        0     13.3
    07/27/2014 02:30      0.2      140      1.4      132     71.9     72.1     71.8       52     1013     0.00        0     13.3
    07/27/2014 02:45      0.6      111      2.2       95     72.3     72.5     71.9       51     1013     0.00        0     13.3
    07/27/2014 03:00      0.1      117      1.5      109     72.3     72.5     71.9       52     1013     0.00        0     13.3
    07/27/2014 03:15      0.0        0      0.0       47     71.8     72.2     71.6       53     1013     0.00        0     13.3
    07/27/2014 03:30      0.2      253      1.6      252     71.7     72.0     71.4       55     1013     0.00        0     13.3
    07/27/2014 03:45      0.0        0      0.0      254     71.7     71.9     71.5       51     1013     0.00        0     13.3
    07/27/2014 04:00      0.0        0      0.0      289     72.0     72.1     71.8       51     1013     0.00        0     13.3
    07/27/2014 04:15      0.2      162      1.8      165     71.9     72.1     71.7       53     1013     0.00        0     13.3
    07/27/2014 04:30      0.0        0      0.0      153     71.5     71.9     71.3       55     1013     0.00        0     13.3
    07/27/2014 04:45      0.6      143      2.4      162     71.2     71.5     70.8       56     1013     0.00        0     13.3
    07/27/2014 05:00      1.4      145      3.4      147     71.1     71.4     70.9       55     1013     0.00        0     13.3
    07/27/2014 05:15      0.3      146      2.7      153     71.3     71.5     71.1       55     1013     0.00        1     13.3
    07/27/2014 05:30      0.4      141      1.9      159     71.1     71.3     70.8       56     1013     0.00        6     13.3
    07/27/2014 05:45      0.8      137      3.0      128     71.3     71.6     71.2       55     1014     0.00       10     13.3
    07/27/2014 06:00      0.4       95      2.5       77     71.6     71.9     71.3       54     1014     0.00       14     13.3
    07/27/2014 06:15      1.1       77      3.2       75     71.8     71.9     71.6       55     1014     0.00       26     13.3
    07/27/2014 06:30      1.9       82      4.0       59     72.0     72.1     71.8       53     1015     0.00       43     13.3
    07/27/2014 06:45      1.6       77      4.3       67     72.3     72.5     71.9       53     1015     0.00       55     13.3
    07/27/2014 07:00      1.3       44      3.2       62     72.4     72.6     72.1       55     1015     0.00       71     13.3
    07/27/2014 07:15      0.1       46      1.7       33     72.7     73.1     72.3       53     1015     0.00       84     13.3
    07/27/2014 07:30      0.2      136      2.3      107     73.3     73.9     72.9       53     1015     0.00      103     13.3
    07/27/2014 07:45      1.6      121      3.6       66     73.8     74.3     73.5       52     1015     0.00      141     13.2
    07/27/2014 08:00      1.1      134      3.0      170     74.0     74.6     73.5       52     1015     0.00      194     13.2
    07/27/2014 08:15      1.6      145      3.6      130     74.8     75.1     74.5       47     1015     0.00      211     13.2
    07/27/2014 08:30      0.3      147      1.9      149     75.5     76.0     74.7       49     1015     0.00      208     13.2
    07/27/2014 08:45      0.3       73      2.1       27     76.1     76.5     75.8       45     1015     0.00      214     13.2
    07/27/2014 09:00      0.2      142      1.6       88     76.6     77.1     76.1       44     1015     0.00      213     13.2
    07/27/2014 09:15      1.1      169      2.6      158     76.8     77.4     76.4       44     1015     0.00      271     13.2
    07/27/2014 09:30      0.5      151      2.2       73     77.6     78.1     77.2       42     1015     0.00      295     13.2
    07/27/2014 09:45      0.8      193      3.4      181     78.4     79.7     77.2       34     1015     0.00      497     13.2
    07/27/2014 10:00      1.7      236      3.6      254     80.1     81.7     79.0       30     1015     0.00      708     13.1
    07/27/2014 10:15      2.2       76      5.4       75     82.1     82.7     81.5       31     1015     0.00      646     13.1
    07/27/2014 10:30      3.2       98      8.0       98     82.7     83.3     82.0       31     1015     0.00      713     13.1
    07/27/2014 10:45      4.5      115     12.8      140     83.6     84.3     82.6       31     1015     0.00      762     13.1
    07/27/2014 11:00      4.9      117     10.6      108     83.4     84.3     82.7       39     1016     0.00      589     13.1
    07/27/2014 11:15      3.6      114      9.0      113     82.8     83.5     82.4       38     1016     0.00      489     13.1
    07/27/2014 11:30      4.0      114      9.8      152     83.0     84.1     82.0       33     1015     0.00      771     13.1
    07/27/2014 11:45      3.8      121      8.9      142     83.8     84.6     83.2       31     1015     0.00      546     13.1
    07/27/2014 12:00      3.1      131      8.3      142     83.1     83.7     82.4       30     1015     0.00      341     13.1
    07/27/2014 12:15      2.7      138      8.0      154     82.7     83.3     82.3       29     1015     0.00      332     13.1
    07/27/2014 12:30      3.8      180      6.8      137     82.4     82.9     82.0       27     1015     0.00      299     13.1
    07/27/2014 12:45      2.7      161      5.2      146     83.1     84.1     82.5       26     1015     0.00      428     13.1
    07/27/2014 13:00      3.2      151      6.9      186     85.8     86.7     84.2       21     1015     0.00      946     13.1
    07/27/2014 13:15      2.8      184      6.8      192     86.7     87.3     86.3       22     1015     0.00      505     13.0
    07/27/2014 13:30      2.2      154      5.2       85     86.5     87.1     85.9       23     1015     0.00      445     13.0
    07/27/2014 13:45      1.0      114      2.9      249     87.0     87.7     86.5       23     1015     0.00      498     13.0
    07/27/2014 14:00      1.6      341      5.1      340     89.1     89.9     87.7       22     1014     0.00      859     13.0
    07/27/2014 14:15      1.7      325      5.8      330     89.8     90.8     88.5       21     1014     0.00      860     13.0
    07/27/2014 14:30      1.7      336      6.2       59     90.4     91.5     89.9       17     1014     0.00      817     13.0
    07/27/2014 14:45      0.9      310      3.8      307     92.1     93.3     90.9       15     1014     0.00      753     13.0
    07/27/2014 15:00      1.4      185      4.0      186     92.5     94.0     91.2       14     1013     0.00      674     13.0
    07/27/2014 15:15      1.0      212      2.9      210     92.4     93.3     91.2       14     1013     0.00      648     13.0
    07/27/2014 15:30      1.5      136      5.3      182     93.2     93.8     92.7       13     1013     0.00      604     13.0
    07/27/2014 15:45      1.4      195      4.4      186     93.4     94.0     92.8       14     1012     0.00      557     13.0
    07/27/2014 16:00      2.4      198      6.7      251     94.0     94.8     93.3       15     1012     0.00      507     13.0
    07/27/2014 16:15      2.9      246      6.7      263     94.1     94.7     93.7       17     1012     0.00      474     13.0
    07/27/2014 16:30      3.7      268      9.1      252     93.1     93.8     92.4       16     1012     0.00      389     13.0
    07/27/2014 16:45      3.4      271      9.5      266     91.9     92.6     91.4       22     1012     0.00      262     13.0
    07/27/2014 17:00      3.7      262      8.2      262     91.8     92.1     91.5       18     1012     0.00      316     13.0
    07/27/2014 17:15      3.2      255      8.1      254     91.3     92.0     90.8       21     1012     0.00      221     13.0
    07/27/2014 17:30      3.6      256      8.4      258     90.6     91.3     89.8       22     1012     0.00      157     13.0
    07/27/2014 17:45      4.6      270      9.1      246     88.7     90.0     87.6       24     1012     0.00      109     13.0
    07/27/2014 18:00      3.5      278      8.8      249     87.3     87.8     86.9       25     1012     0.00       62     13.1
    07/27/2014 18:15      1.9      250      6.9      256     87.0     87.1     86.8       25     1012     0.00       33     13.1
    07/27/2014 18:30      0.4      237      4.0      256     86.6     87.1     86.3       26     1012     0.00       28     13.1
    07/27/2014 18:45      0.6      294      2.5      294     86.1     86.6     85.4       26     1012     0.00       20     13.1
    07/27/2014 19:00      0.4      288      2.5      282     85.0     85.6     84.4       28     1013     0.00       10     13.1
    07/27/2014 19:15      0.3      293      2.1      287     84.3     84.6     83.9       28     1013     0.00        4     13.1
    07/27/2014 19:30      0.6      288      2.3      292     83.7     84.5     83.2       27     1013     0.00        0     13.2
    07/27/2014 19:45      0.0        0      0.0      287     82.9     83.4     82.4       28     1013     0.00        0     13.2
    07/27/2014 20:00      0.0        0      0.0      290     81.9     82.5     81.3       29     1013     0.00        0     13.2
    07/27/2014 20:15      0.0        0      0.0      286     81.0     81.4     80.6       30     1013     0.00        0     13.2
    07/27/2014 20:30      0.2      254      1.7      240     80.5     80.9     80.1       31     1013     0.00        0     13.2
    07/27/2014 20:45      0.3      242      2.7      261     80.4     80.7     80.0       30     1013     0.00        0     13.2
    07/27/2014 21:00      2.8      271      7.2      264     80.8     81.2     79.9       28     1013     0.00        0     13.2
    07/27/2014 21:15      0.5      289      3.4      280     80.1     80.7     79.5       31     1013     0.00        0     13.2
    07/27/2014 21:30      0.0        0      0.0      316     79.1     79.7     78.6       32     1013     0.00        0     13.2
    07/27/2014 21:45      0.0        0      0.0      299     78.2     78.8     77.4       33     1014     0.00        0     13.2
    07/27/2014 22:00      0.4      195      2.8      194     77.4     77.8     77.2       32     1014     0.00        0     13.2
    07/27/2014 22:15      1.5      186      3.6      186     77.7     77.9     77.4       33     1014     0.00        0     13.2
    07/27/2014 22:30      0.4      135      1.9      139     78.3     78.7     77.7       31     1014     0.00        0     13.2
    07/27/2014 22:45      0.6       65      3.1       24     78.2     78.4     77.9       31     1014     0.00        0     13.2
    07/27/2014 23:00      1.3       84      4.5       82     78.3     78.5     78.0       31     1014     0.00        0     13.2
    07/27/2014 23:15      2.8       95      8.3       91     77.7     78.3     76.2       51     1014     0.00        0     13.2
    07/27/2014 23:30      3.8       86      9.6       93     74.8     76.2     73.9       59     1015     0.00        0     13.2
    07/27/2014 23:45      3.3       91      8.7       97     73.5     74.1     72.9       62     1015     0.00        0     13.2
    07/28/2014 00:00      2.0       92      5.5      100     72.5     73.0     72.1       63     1015     0.00        0     13.2
    07/28/2014 00:15      1.6       77      4.6       75     71.7     72.3     71.2       66     1015     0.00        0     13.3
    07/28/2014 00:30      0.8       43      3.4       46     71.2     71.5     70.9       65     1015     0.00        0     13.3
    07/28/2014 00:45      1.5       37      4.3       59     71.4     71.9     71.1       61     1015     0.00        0     13.3
    07/28/2014 01:00      1.7       38      4.5       31     71.9     72.1     71.6       59     1015     0.00        0     13.3
    07/28/2014 01:15      2.6       46      4.9       29     72.0     72.3     71.8       56     1016     0.00        0     13.3
    07/28/2014 01:30      1.6       78      4.4       59     72.3     72.5     71.9       55     1016     0.00        0     13.3
    07/28/2014 01:45      1.2       80      3.7       49     72.3     72.5     72.0       57     1015     0.00        0     13.3
    07/28/2014 02:00      0.5       88      2.3      116     71.9     72.2     71.5       58     1016     0.00        0     13.3
    07/28/2014 02:15      1.0       67      2.5       81     71.7     71.8     71.5       58     1016     0.00        0     13.3
    07/28/2014 02:30      0.2       87      1.9      114     71.6     71.8     71.4       53     1016     0.00        0     13.3
    07/28/2014 02:45      0.6      104      3.7      138     71.6     71.8     71.2       54     1016     0.00        0     13.3
    07/28/2014 03:00      1.7       78      4.1       74     71.3     71.6     71.1       53     1016     0.00        0     13.3
    07/28/2014 03:15      1.8       80      4.6       75     71.0     71.3     70.7       54     1016     0.00        0     13.3
    07/28/2014 03:30      0.3       60      1.8       38     70.8     71.0     70.6       55     1016     0.00        0     13.3
    07/28/2014 03:45      0.1       89      1.4      105     70.6     70.9     70.4       56     1016     0.00        0     13.3
    07/28/2014 04:00      0.1      134      1.4      159     70.5     70.7     70.2       57     1016     0.00        0     13.3
    07/28/2014 04:15      0.2       44      1.5       31     70.7     71.0     70.4       57     1016     0.00        0     13.3
    07/28/2014 04:30      0.4       38      2.9       71     70.9     71.3     70.6       57     1016     0.00        0     13.3
    07/28/2014 04:45      0.0        0      0.0       58     70.9     71.2     70.6       59     1016     0.00        0     13.3
    07/28/2014 05:00      0.0        0      0.0      279     70.5     70.8     70.2       60     1016     0.00        0     13.3
    07/28/2014 05:15      0.1       40      1.0       27     70.3     70.5     70.1       60     1016     0.00        2     13.3
    07/28/2014 05:30      0.4      166      1.8      156     70.3     70.6     70.2       62     1016     0.00        7     13.3
    07/28/2014 05:45      0.7       90      2.4       82     70.5     70.9     70.1       61     1016     0.00       14     13.3
    07/28/2014 06:00      0.6       71      2.6      105     70.8     71.0     70.6       61     1016     0.00       33     13.3
    07/28/2014 06:15      0.2      128      1.8      144     71.0     71.4     70.7       61     1017     0.00       61     13.3
    07/28/2014 06:30      0.0      116      0.2      136     71.7     72.5     71.2       58     1017     0.00      108     13.3
    07/28/2014 06:45      0.2      159      2.7      163     72.7     73.4     72.2       57     1017     0.00      186     13.3
    07/28/2014 07:00      0.7      173      2.2      139     73.6     74.5     73.0       54     1017     0.00      290     13.2
    07/28/2014 07:15      1.0      225      3.6      203     74.8     75.4     74.3       51     1017     0.00      329     13.2
    07/28/2014 07:30      2.3      185      4.4      192     75.2     76.1     74.6       49     1017     0.00      382     13.2
    07/28/2014 07:45      1.9      227      4.1      197     76.6     77.5     75.3       46     1017     0.00      486     13.2
    07/28/2014 08:00      1.3      217      4.3      145     77.0     77.7     76.7       47     1017     0.00      398     13.2
    07/28/2014 08:15      1.1      196      3.6      224     77.5     78.8     76.6       43     1017     0.00      415     13.2
    07/28/2014 08:30      1.6      202      5.7      197     78.3     79.0     77.2       41     1017     0.00      489     13.1
    07/28/2014 08:45      2.0      140      4.6      134     79.3     79.7     78.8       41     1017     0.00      410     13.1
    07/28/2014 09:00      2.1      136      4.3      188     79.8     80.3     79.2       39     1017     0.00      380     13.1
    07/28/2014 09:15      2.0      112      6.0      147     80.4     81.0     79.5       35     1017     0.00      449     13.1
    07/28/2014 09:30      2.1      103      5.9       79     80.8     81.2     80.4       37     1017     0.00      471     13.1
    07/28/2014 09:45      1.8       94      5.0       24     80.7     81.3     80.4       36     1017     0.00      422     13.1
    07/28/2014 10:00      1.2      113      4.4       83     81.9     83.6     80.0       32     1017     0.00      871     13.1
    07/28/2014 10:15      1.0      204      3.9      259     83.7     85.3     82.6       29     1017     0.00      668     13.1
    07/28/2014 10:30      0.6      150      2.8      107     85.3     85.7     85.0       27     1017     0.00      544     13.1
    07/28/2014 10:45      2.3      119      5.0       96     85.3     86.1     84.5       27     1017     0.00      617     13.1
    07/28/2014 11:00      2.3      136      5.0      173     86.2     87.4     85.1       25     1017     0.00      603     13.1
    07/28/2014 11:15      2.1      147      5.3      139     87.5     88.3     86.5       18     1017     0.00      725     13.0
    07/28/2014 11:30      2.1      123      6.0      163     88.8     89.4     88.0       17     1016     0.00      696     13.0
    07/28/2014 11:45      2.0      170      6.0      167     90.7     91.7     89.0       17     1016     0.00     1039     13.0
    07/28/2014 12:00      1.5      251      6.1      274     91.6     92.5     90.7       17     1016     0.00     1083     13.0
    07/28/2014 12:15      2.5      256      8.9      198     93.0     94.2     91.9       18     1016     0.00      901     13.0
    07/28/2014 12:30      3.6      186      8.6      185     93.1     94.1     92.2       16     1016     0.00      996     13.0
    07/28/2014 12:45      4.3      182      9.2      198     93.7     94.5     92.9       16     1016     0.00      924     13.0
    07/28/2014 13:00      4.7      229      9.9      204     93.8     95.2     92.5       13     1015     0.00     1011     13.0
    07/28/2014 13:15      2.1      238      7.2      257     95.3     96.1     94.4       14     1015     0.00      911     13.0
    07/28/2014 13:30      2.8      112      7.2      127     94.2     94.9     93.5       17     1015     0.00      861     13.0
    07/28/2014 13:45      4.0      114      9.1      120     94.3     94.8     93.2       17     1015     0.00      915     13.0
    07/28/2014 14:00      5.0      121     11.9      149     92.9     93.8     92.3       17     1015     0.00      883     13.0
    07/28/2014 14:15      4.2      116     10.2      156     93.3     94.3     92.6       17     1015     0.00      879     13.0
    07/28/2014 14:30      3.9      102      8.3      135     93.8     94.8     93.0       16     1015     0.00      823     13.0
    07/28/2014 14:45      3.7      105      8.9       95     93.3     93.8     92.7       17     1015     0.00      770     13.0
    07/28/2014 15:00      4.3      114     11.1      142     93.2     93.6     92.6       17     1015     0.00      703     13.0
    07/28/2014 15:15      4.4      121     11.0      159     92.7     93.3     91.8       17     1014     0.00      678     13.0
    07/28/2014 15:30      4.1       95      9.9      108     92.5     92.9     92.1       18     1014     0.00      627     13.0
    07/28/2014 15:45      2.2      138      6.5       96     92.5     93.4     91.7       17     1014     0.00      582     13.0
    07/28/2014 16:00      2.2      234      8.3      244     93.4     94.3     92.6       14     1014     0.00      537     13.0
    07/28/2014 16:15      4.9      266     13.5      249     93.6     94.2     92.8       16     1014     0.00      490     13.0
    07/28/2014 16:30      5.3      264     12.3      251     92.7     93.8     91.8       15     1014     0.00      437     13.0
    07/28/2014 16:45      5.7      266     13.2      273     91.4     92.4     90.6       14     1014     0.00      310     13.0
    07/28/2014 17:00      6.9      263     12.5      253     89.8     90.7     89.2       15     1014     0.00      272     13.0
    07/28/2014 17:15      5.2      250     13.1      255     89.6     90.1     89.0       16     1014     0.00      266     13.0
    07/28/2014 17:30      3.7      248     10.4      259     89.1     89.4     88.7       15     1014     0.00      224     13.0
    07/28/2014 17:45      4.4      255      9.7      248     88.2     88.8     87.5       16     1014     0.00      172     13.0
    07/28/2014 18:00      3.6      257      8.9      247     87.1     87.5     86.5       15     1014     0.00       84     13.0
    07/28/2014 18:15      4.0      246     10.1      253     86.2     86.9     85.4       21     1014     0.00       39     13.1
    07/28/2014 18:30      4.7      251     12.3      254     84.8     85.6     84.1       19     1014     0.00       26     13.1
    07/28/2014 18:45      4.8      252     12.0      253     83.6     84.2     83.0       22     1014     0.00       14     13.1
    07/28/2014 19:00      2.7      237      6.7      213     82.6     83.1     82.3       17     1014     0.00        5     13.1
    07/28/2014 19:15      2.9      227      8.8      239     82.2     82.5     81.7       15     1015     0.00        1     13.2
    07/28/2014 19:30      2.4      227      7.0      236     81.4     81.9     81.1       14     1015     0.00        0     13.2
    07/28/2014 19:45      3.8      242      8.4      254     81.0     81.7     80.3       18     1015     0.00        0     13.2
    07/28/2014 20:00      4.5      250     11.1      255     80.3     80.8     79.7       24     1015     0.00        0     13.2
    07/28/2014 20:15      2.4      226      8.2      265     79.0     79.8     78.6       27     1015     0.00        0     13.2
    07/28/2014 20:30      2.7      270      7.3      262     78.7     79.0     78.1       32     1016     0.00        0     13.2
    07/28/2014 20:45      3.6      262      9.3      262     77.5     78.2     76.9       38     1016     0.00        0     13.2
    07/28/2014 21:00      1.6      238      6.0      271     76.5     77.2     76.0       44     1016     0.00        0     13.2
    07/28/2014 21:15      3.0      264      6.0      249     76.0     76.3     75.7       46     1016     0.00        0     13.2
    07/28/2014 21:30      1.8      220      6.0      210     75.4     75.9     74.9       43     1016     0.00        0     13.2
    07/28/2014 21:45      2.8      227      7.3      195     74.9     75.4     74.6       43     1016     0.00        0     13.2
    07/28/2014 22:00      2.0      250      5.3      258     74.7     74.9     74.4       43     1016     0.00        0     13.2
    07/28/2014 22:15      1.4      210      5.5      198     73.6     74.6     72.8       48     1016     0.00        0     13.2
    07/28/2014 22:30      1.2      210      4.9      195     72.6     73.0     72.2       51     1016     0.00        0     13.3
    07/28/2014 22:45      0.6      219      4.4      257     72.3     72.5     72.1       50     1016     0.00        0     13.3
    07/28/2014 23:00      0.0      251      0.4      258     72.0     72.4     71.6       53     1016     0.00        0     13.3
    07/28/2014 23:15      1.2      171      2.9      177     71.7     71.9     71.5       52     1016     0.00        0     13.3
    07/28/2014 23:30      0.6      196      2.5      185     71.6     71.8     71.2       55     1016     0.00        0     13.3
    07/28/2014 23:45      0.5      207      3.4      234     70.9     71.3     70.5       50     1016     0.00        0     13.3
    07/29/2014 00:00      0.2      190      2.1      187     71.0     71.3     70.7       51     1015     0.00        0     13.3
    07/29/2014 00:15      0.5      180      2.1      186     70.7     71.0     70.5       51     1015     0.00        0     13.3
    07/29/2014 00:30      0.0      165      1.0      163     70.5     70.8     70.4       50     1016     0.00        0     13.3
    07/29/2014 00:45      0.0      314      0.4      314     70.5     71.0     70.2       51     1016     0.00        0     13.3
    07/29/2014 01:00      0.0        0      0.0      328     70.8     71.0     70.4       52     1016     0.00        0     13.3
    07/29/2014 01:15      0.1       11      1.4       34     70.9     71.1     70.5       53     1015     0.00        0     13.3
    07/29/2014 01:30      0.0        0      0.0       31     70.2     70.8     69.8       56     1015     0.00        0     13.3
    07/29/2014 01:45      0.0        0      0.0      142     69.7     69.9     69.4       58     1015     0.00        0     13.3
    07/29/2014 02:00      0.0        0      0.0      167     69.4     69.7     69.2       57     1015     0.00        0     13.3
    07/29/2014 02:15      0.3       71      1.8       80     69.6     70.3     69.2       55     1015     0.00        0     13.3
    07/29/2014 02:30      0.3      142      3.6      160     69.9     70.3     69.2       59     1015     0.00        0     13.3
    07/29/2014 02:45      0.4      154      4.1      159     69.1     69.4     68.9       56     1015     0.00        0     13.3
    07/29/2014 03:00      0.2       70      1.9       75     69.3     69.6     69.0       54     1016     0.00        0     13.3
    07/29/2014 03:15      0.6       26      2.0       42     70.0     70.3     69.4       54     1016     0.00        0     13.3
    07/29/2014 03:30      0.2      336      1.5      339     69.9     70.4     69.6       55     1016     0.00        0     13.3
    07/29/2014 03:45      0.3      344      2.2      355     69.8     70.0     69.6       56     1016     0.00        0     13.3
    07/29/2014 04:00      0.2        3      1.8       11     69.5     69.8     68.9       58     1016     0.00        0     13.3
    07/29/2014 04:15      0.0       43      1.0       40     68.8     69.0     68.5       58     1016     0.00        0     13.3
    07/29/2014 04:30      0.6       10      1.6       37     69.3     69.7     68.8       55     1016     0.00        0     13.3
    07/29/2014 04:45      0.0        0      0.0        0     68.8     69.5     68.1       58     1016     0.00        0     13.3
    07/29/2014 05:00      0.0        0      0.0      246     67.7     68.2     67.3       59     1016     0.00        2     13.3
    07/29/2014 05:15      0.1      201      1.6      213     67.8     68.1     67.4       59     1016     0.00        7     13.3
    07/29/2014 05:30      0.0        0      0.0      285     68.1     68.3     67.8       59     1016     0.00       17     13.3
    07/29/2014 05:45      0.0        0      0.0      327     68.3     68.5     68.1       60     1016     0.00       28     13.3
    07/29/2014 06:00      0.0        0      0.0      276     68.8     69.7     68.2       58     1016     0.00       62     13.3
    07/29/2014 06:15      0.2      218      1.4      177     70.3     71.0     69.6       55     1016     0.00      101     13.3
    07/29/2014 06:30      0.7      268      2.8      261     71.2     71.5     70.7       52     1016     0.00      147     13.3
    07/29/2014 06:45      0.6      237      2.8      261     72.0     72.7     71.3       50     1016     0.00      189     13.3
    07/29/2014 07:00      0.3      268      1.8      245     73.3     74.0     72.5       48     1016     0.00      248     13.3
    07/29/2014 07:15      0.1      258      1.4      254     75.1     76.2     73.9       42     1016     0.00      292     13.2
    07/29/2014 07:30      0.1      249      1.9      228     76.7     77.8     75.7       39     1016     0.00      320     13.2
    07/29/2014 07:45      0.1      195      1.8      188     78.1     78.5     77.4       35     1016     0.00      367     13.2
    07/29/2014 08:00      0.8      116      3.2       89     78.8     79.5     78.0       32     1016     0.00      402     13.2
    07/29/2014 08:15      0.6      112      2.2      104     80.2     80.8     79.4       30     1016     0.00      426     13.2
    07/29/2014 08:30      1.4      178      2.9      166     79.9     80.5     79.5       32     1016     0.00      480     13.1
    07/29/2014 08:45      1.0      183      2.8      184     80.6     81.1     79.9       30     1016     0.00      538     13.1
    07/29/2014 09:00      0.7      204      4.5      207     81.8     82.7     80.7       30     1016     0.00      494     13.1
    07/29/2014 09:15      2.7      190      5.5      147     82.1     83.2     81.3       25     1016     0.00      536     13.1
    07/29/2014 09:30      3.0      185      5.7      185     83.2     83.9     82.6       24     1016     0.00      555     13.1
    07/29/2014 09:45      1.2      179      4.8      176     83.7     84.6     82.9       22     1016     0.00      595     13.1
    07/29/2014 10:00      0.5      163      2.3      174     86.5     87.8     84.5       19     1016     0.00      691     13.1
    07/29/2014 10:15      2.3      147      6.2      140     87.1     87.9     86.4       22     1016     0.00      677     13.1
    07/29/2014 10:30      2.1      197      6.4      157     87.6     88.8     86.8       20     1016     0.00      749     13.0
    07/29/2014 10:45      1.8      153      4.8      143     88.6     89.7     87.7       20     1015     0.00      687     13.0
    07/29/2014 11:00      1.6      105      4.8      141     89.7     90.4     88.7       17     1015     0.00      832     13.0
    07/29/2014 11:15      1.8       97      5.9       70     90.7     91.3     90.0       17     1015     0.00      808     13.0
    07/29/2014 11:30      1.9      154      6.1      129     91.4     91.9     90.8       19     1015     0.00      813     13.0
    07/29/2014 11:45      2.7      119     10.6      188     92.2     92.8     91.5       17     1015     0.00      874     13.0
    07/29/2014 12:00      2.9      124      8.8      144     93.1     93.7     92.7       20     1014     0.00      857     13.0
    07/29/2014 12:15      4.1      152      8.2      133     93.8     94.4     93.1       21     1014     0.00      887     13.0
    07/29/2014 12:30      3.4      129      8.4      127     94.7     95.3     93.7       18     1014     0.00      905     13.0
    07/29/2014 12:45      3.7      114      7.6      126     94.6     95.4     93.7       23     1014     0.00      884     13.0
    07/29/2014 13:00      4.9      116     11.1      145     94.4     95.1     93.9       22     1014     0.00      876     13.0
    07/29/2014 13:15      4.1      137      9.1      161     94.9     95.6     94.2       22     1014     0.00      884     13.0
    07/29/2014 13:30      4.3      131     11.1      147     94.8     95.6     94.2       22     1013     0.00      872     13.0
    07/29/2014 13:45      4.8      131      9.7      149     94.9     95.5     94.3       22     1013     0.00      830     13.0
    07/29/2014 14:00      4.8      132      9.4      142     94.4     95.1     93.8       20     1013     0.00      805     13.0
    07/29/2014 14:15      4.7      127     10.2      144     94.9     95.8     94.0       21     1013     0.00      664     13.0
    07/29/2014 14:30      3.9      130      9.9       99     95.1     95.6     94.2       18     1013     0.00      686     13.0
    07/29/2014 14:45      4.4      119      9.7      135     94.3     94.8     93.6       18     1013     0.00      619     13.0
    07/29/2014 15:00      3.0      122      7.3      138     94.6     96.4     93.7       17     1012     0.00      647     13.0
    07/29/2014 15:15      3.8      101      7.9      100     95.5     96.5     94.8       17     1012     0.00      519     13.0
    07/29/2014 15:30      1.9      110      7.1       82     96.0     96.3     95.3       18     1012     0.00      541     13.0
    07/29/2014 15:45      1.8      110      5.7      147     95.5     96.4     94.8       17     1012     0.00      315     13.0
    07/29/2014 16:00      3.2      275      9.3      251     94.5     95.4     93.8       18     1012     0.00      212     13.0
    07/29/2014 16:15      2.2      227      7.3      252     93.3     93.9     92.6       21     1012     0.00      193     13.0
    07/29/2014 16:30      5.9      168     11.0      140     91.2     92.9     89.9       26     1012     0.00      293     13.0
    07/29/2014 16:45      4.1      141      8.3      155     89.5     90.2     88.8       26     1012     0.00      251     13.0
    07/29/2014 17:00      3.1      139      7.2      155     87.9     88.9     87.3       28     1013     0.00      227     13.0
    07/29/2014 17:15      3.5      172      6.8      194     88.0     88.4     87.5       25     1013     0.00      183     13.0
    07/29/2014 17:30      3.9      214      9.9      194     86.7     87.8     86.1       24     1013     0.00      141     13.0
    07/29/2014 17:45      2.9      247      8.9      259     86.8     87.3     86.1       24     1013     0.00       85     13.1
    07/29/2014 18:00      3.4      241      9.3      245     85.7     86.3     84.9       26     1013     0.00       62     13.1
    07/29/2014 18:15      3.1      261      9.1      254     84.4     85.0     83.7       28     1013     0.00       44     13.1
    07/29/2014 18:30      2.8      230      7.7      282     83.1     83.8     82.7       29     1013     0.00       33     13.1
    07/29/2014 18:45      2.7      224      8.5      269     82.7     83.2     82.2       30     1013     0.00       19     13.1
    07/29/2014 19:00      3.4      237     10.0      251     82.1     82.5     81.7       30     1013     0.00        6     13.1
    07/29/2014 19:15      2.1      251      7.8      259     81.6     82.0     81.3       30     1013     0.00        1     13.2
    07/29/2014 19:30      2.1      234      5.7      248     81.2     81.6     80.6       33     1013     0.00        0     13.2
    07/29/2014 19:45      2.2      191      5.3      193     79.9     80.7     79.4       33     1014     0.00        0     13.2
    07/29/2014 20:00      1.0      274      4.3      295     79.6     80.0     79.3       33     1014     0.00        0     13.2
    07/29/2014 20:15      0.7      283      3.9      248     79.9     80.2     79.5       33     1014     0.00        0     13.2
    07/29/2014 20:30      0.1      307      1.5      289     79.7     80.0     79.4       33     1014     0.00        0     13.2
    07/29/2014 20:45      0.0        0      0.0      326     79.2     79.7     78.6       34     1014     0.00        0     13.2
    07/29/2014 21:00      0.0      290      0.6      306     78.5     78.8     78.2       35     1014     0.00        0     13.2
    07/29/2014 21:15      0.0        0      0.0      261     78.1     78.6     77.7       35     1014     0.00        0     13.2
    07/29/2014 21:30      0.0        0      0.0      247     78.0     78.3     77.8       35     1014     0.00        0     13.2
    07/29/2014 21:45      0.0        0      0.0      309     78.2     78.4     78.0       35     1013     0.00        0     13.2
    07/29/2014 22:00      1.4      145      4.8      149     77.4     78.2     76.7       40     1013     0.00        0     13.2
    07/29/2014 22:15      0.2      101      2.5       88     77.3     77.6     77.0       41     1013     0.00        0     13.2
    07/29/2014 22:30      1.0      117      5.4      103     77.3     77.7     76.7       44     1013     0.00        0     13.2
    07/29/2014 22:45      1.2      107      5.1      130     76.4     77.0     75.8       46     1013     0.00        0     13.2
    07/29/2014 23:00      2.0       79      6.0       74     75.5     75.9     75.2       46     1014     0.00        0     13.2
    07/29/2014 23:15      2.8       60      6.4       55     75.0     75.5     74.7       47     1014     0.00        0     13.2
    07/29/2014 23:30      2.3       71      5.8       44     74.5     74.9     74.1       49     1014     0.00        0     13.2
    07/29/2014 23:45      1.9       81      4.4       67     74.0     74.3     73.8       49     1014     0.00        0     13.3
    07/30/2014 00:00      1.9       88      5.7       84     73.7     74.0     73.3       49     1014     0.00        0     13.3
    07/30/2014 00:15      1.1       74      3.5       89     73.3     73.7     73.1       49     1014     0.00        0     13.3
    07/30/2014 00:30      0.6       91      2.6      113     73.0     73.3     72.5       52     1014     0.00        0     13.3
    07/30/2014 00:45      0.2      164      1.5      163     72.1     72.6     71.6       54     1013     0.00        0     13.3
    07/30/2014 01:00      0.0        0      0.0      171     71.3     71.8     71.0       58     1013     0.00        0     13.3
    07/30/2014 01:15      0.0        0      0.0      133     71.0     71.3     70.7       57     1013     0.00        0     13.3
    07/30/2014 01:30      0.0        0      0.0      287     70.9     71.2     70.7       57     1013     0.00        0     13.3
    07/30/2014 01:45      0.2      170      1.5      180     70.6     70.8     70.4       59     1013     0.00        0     13.3
    07/30/2014 02:00      0.1      164      1.1      161     70.3     70.6     69.9       59     1013     0.00        0     13.3
    07/30/2014 02:15      0.0        0      0.0      186     70.2     70.4     70.0       59     1013     0.00        0     13.3
    07/30/2014 02:30      0.0        0      0.0      164     70.2     70.4     70.0       60     1013     0.00        0     13.3
    07/30/2014 02:45      0.0        0      0.0      189     70.2     70.6     69.9       59     1013     0.00        0     13.3
    07/30/2014 03:00      0.0        0      0.0      328     70.6     70.8     70.3       59     1013     0.00        0     13.3
    07/30/2014 03:15      0.0       92      1.0       87     70.5     70.8     70.2       58     1013     0.00        0     13.3
    07/30/2014 03:30      0.1      147      1.2      148     70.8     71.1     70.5       58     1013     0.00        0     13.3
    07/30/2014 03:45      0.0        0      0.0      270     70.8     71.1     70.5       59     1013     0.00        0     13.3
    07/30/2014 04:00      0.1      161      1.1      162     70.7     71.0     70.5       58     1013     0.00        0     13.3
    07/30/2014 04:15      0.2      198      1.4      196     70.7     70.9     70.4       58     1013     0.00        0     13.3
    07/30/2014 04:30      0.0        0      0.0      139     70.7     71.0     70.5       59     1013     0.00        0     13.3
    07/30/2014 04:45      0.1      176      1.8      176     70.5     70.8     70.4       58     1013     0.00        0     13.3
    07/30/2014 05:00      0.7       71      2.1       65     70.7     71.0     70.4       58     1013     0.00        1     13.3
    07/30/2014 05:15      0.9       53      2.6       56     71.2     71.6     70.8       57     1013     0.00       11     13.3
    07/30/2014 05:30      0.5       62      2.6       68     71.4     71.6     71.3       57     1013     0.00       19     13.3
    07/30/2014 05:45      0.0      215      1.0      215     70.9     71.5     70.5       59     1013     0.00       34     13.3
    07/30/2014 06:00      0.0        0      0.0       16     71.5     72.5     70.7       58     1013     0.00       91     13.3
    07/30/2014 06:15      0.2      181      2.7      175     72.7     73.6     72.1       54     1013     0.00      141     13.3
    07/30/2014 06:30      2.0      180      3.3      165     73.8     74.2     73.5       53     1013     0.00      142     13.3
    07/30/2014 06:45      1.8      188      3.9      189     74.8     75.3     74.0       52     1013     0.00      215     13.2
    07/30/2014 07:00      1.6      173      3.2      168     75.4     76.5     74.2       48     1014     0.00      261     13.2
    07/30/2014 07:15      1.7      191      3.5      206     76.3     76.8     75.9       48     1014     0.00      299     13.2
    07/30/2014 07:30      0.8      168      2.9      177     77.0     78.5     75.9       44     1014     0.00      354     13.2
    07/30/2014 07:45      1.1       78      3.9       57     79.0     80.0     78.0       40     1014     0.00      401     13.2
    07/30/2014 08:00      0.8      119      3.1      122     80.2     81.1     79.6       36     1014     0.00      448     13.2
    07/30/2014 08:15      1.9      121      4.4      144     81.5     82.1     81.0       37     1014     0.00      491     13.1
    07/30/2014 08:30      1.9      117      4.5       32     81.4     82.1     80.7       35     1014     0.00      537     13.1
    07/30/2014 08:45      1.2      179      4.4      170     81.7     82.7     80.9       35     1014     0.00      583     13.1
    07/30/2014 09:00      1.8      111      4.4       69     83.4     84.0     82.6       34     1014     0.00      626     13.1
    07/30/2014 09:15      1.5      126      4.4      154     84.8     85.6     83.7       31     1014     0.00      666     13.1
    07/30/2014 09:30      2.2      160      8.3      166     85.3     85.9     84.7       30     1014     0.00      704     13.1
    07/30/2014 09:45      1.4      161      4.3      165     86.7     87.5     85.8       30     1014     0.00      740     13.1
    07/30/2014 10:00      2.3      121      5.3       95     87.5     88.5     86.6       29     1013     0.00      771     13.0
    07/30/2014 10:15      1.4      181      4.6      173     88.1     89.5     86.9       28     1013     0.00      801     13.0
    07/30/2014 10:30      2.4      236      6.2      167     88.8     90.7     87.7       27     1013     0.00      810     13.0
    07/30/2014 10:45      1.6      142      5.1      133     90.6     91.3     90.2       26     1013     0.00      850     13.0
    07/30/2014 11:00      3.7      133      8.0      179     91.1     92.5     90.4       26     1013     0.00      868     13.0
    07/30/2014 11:15      2.7      161      7.4      161     92.7     93.6     92.1       25     1013     0.00      881     13.0
    07/30/2014 11:30      3.4      113      7.0       88     92.9     93.5     92.3       26     1013     0.00      891     13.0
    07/30/2014 11:45      3.6      155      9.4      146     93.1     93.6     92.5       27     1013     0.00      898     13.0
    07/30/2014 12:00      4.0      117      7.8      136     93.6     94.3     92.9       26     1013     0.00      909     13.0
    07/30/2014 12:15      3.0      116      7.9      162     93.9     95.0     93.1       25     1013     0.00      926     13.0
    07/30/2014 12:30      3.2      107     10.5      145     95.0     95.6     94.8       24     1012     0.00      883     13.0
    07/30/2014 12:45      3.5      132      7.7      126     96.0     96.8     94.8       25     1012     0.00      893     13.0
    07/30/2014 13:00      3.8      128      9.8      133     96.2     96.7     95.9       24     1012     0.00      817     13.0
    07/30/2014 13:15      4.2      133      9.7      149     96.4     97.1     95.7       23     1012     0.00      819     13.0
    07/30/2014 13:30      4.9      135      9.8      155     96.0     96.9     95.1       23     1012     0.00      815     13.0
    07/30/2014 13:45      4.2      128      9.7      147     97.0     97.7     96.3       22     1012     0.00      806     13.0
    07/30/2014 14:00      4.7      121      9.9      143     96.9     97.9     96.2       22     1012     0.00      829     13.0
    07/30/2014 14:15      5.6      105     12.4       90     96.6     97.1     96.0       23     1011     0.00      712     13.0
    07/30/2014 14:30      4.2      114     10.8       78     95.8     96.5     95.0       23     1011     0.00      717     13.0
    07/30/2014 14:45      4.3      104     10.7      103     96.1     96.6     95.7       24     1011     0.00      694     13.0
    07/30/2014 15:00      4.7      102     10.2       80     95.2     96.1     94.9       23     1011     0.00      707     13.0
    07/30/2014 15:15      4.6      116     10.4       78     94.5     95.2     93.8       22     1011     0.00      712     13.0
    07/30/2014 15:30      2.6      107      7.5      154     95.1     95.9     94.3       23     1011     0.00      629     13.0
    07/30/2014 15:45      4.1      168      7.6      188     94.9     95.8     94.2       25     1011     0.00      682     13.0
    07/30/2014 16:00      3.4      127      8.4       81     95.6     96.5     94.4       22     1011     0.00      627     13.0
    07/30/2014 16:15      3.4      142      7.0      173     95.0     96.4     93.0       24     1011     0.00      471     13.0
    07/30/2014 16:30      2.3      134      5.6      141     92.7     93.1     92.3       24     1011     0.00      184     13.0
    07/30/2014 16:45      2.2      117      5.1       79     92.6     93.2     92.0       25     1011     0.00      169     13.0
    07/30/2014 17:00      2.3      132      7.1      163     91.4     92.2     90.9       27     1011     0.00      164     13.0
    07/30/2014 17:15      2.5      108      6.8       90     91.1     91.9     90.2       28     1011     0.00      131     13.0
    07/30/2014 17:30      3.2      104      6.2       96     90.4     90.7     90.1       28     1011     0.00      148     13.0
    07/30/2014 17:45      2.4       98      5.0       99     90.5     90.8     89.9       29     1011     0.00      238     13.0
    07/30/2014 18:00      2.9       92      5.7       59     89.6     90.2     88.8       29     1011     0.00      112     13.0
    07/30/2014 18:15      1.9      103      5.0      100     88.5     89.1     88.1       30     1011     0.00       60     13.1
    07/30/2014 18:30      2.4      143      5.2      141     87.6     88.3     86.9       32     1011     0.00       34     13.1
    07/30/2014 18:45      3.3      146      5.5      150     86.3     87.1     85.6       32     1011     0.00       17     13.1
    07/30/2014 19:00      2.4      144      5.2      171     85.1     85.8     84.6       33     1011     0.00        6     13.1
    07/30/2014 19:15      1.5      148      3.3      135     84.2     84.8     83.5       36     1011     0.00        1     13.1
    07/30/2014 19:30      0.9      149      3.4      154     83.4     83.7     82.9       36     1012     0.00        0     13.1
    07/30/2014 19:45      1.8      145      4.0      165     82.7     83.1     82.4       36     1012     0.00        0     13.1